createdAt,value
2018-10-09T00:02:08.022Z,14.90
2018-10-09T00:04:36.498Z,13.40
2018-10-09T00:07:04.774Z,14.20
2018-10-09T00:09:33.069Z,13.30
2018-10-09T00:12:01.334Z,13.90
2018-10-09T00:14:29.602Z,13.60
2018-10-09T00:16:57.898Z,14.43
2018-10-09T00:19:26.167Z,14.87
2018-10-09T00:21:54.415Z,13.80
2018-10-09T00:24:22.753Z,13.90
2018-10-09T00:26:51.030Z,13.30
2018-10-09T00:29:19.507Z,15.70
2018-10-09T00:31:47.803Z,14.70
2018-10-09T00:34:16.079Z,13.80
2018-10-09T00:36:44.374Z,16.03
2018-10-09T00:39:12.741Z,16.10
2018-10-09T00:41:41.026Z,15.07
2018-10-09T00:44:09.317Z,15.50
2018-10-09T00:46:37.661Z,15.80
2018-10-09T00:49:07.206Z,16.47
2018-10-09T00:51:35.497Z,15.03
2018-10-09T00:54:03.938Z,16.10
2018-10-09T00:56:32.217Z,14.70
2018-10-09T00:59:00.493Z,15.80
2018-10-09T01:01:29.998Z,16.33
2018-10-09T01:04:00.323Z,17.63
2018-10-09T01:06:28.654Z,16.27
2018-10-09T01:08:56.954Z,16.90
2018-10-09T01:11:25.222Z,17.40
2018-10-09T01:13:53.513Z,17.60
2018-10-09T01:16:21.923Z,15.90
2018-10-09T01:18:50.205Z,15.90
2018-10-09T01:21:18.469Z,16.50
2018-10-09T01:23:46.837Z,16.33
2018-10-09T01:26:15.111Z,16.40
2018-10-09T01:28:43.378Z,16.70
2018-10-09T01:31:11.717Z,18.73
2018-10-09T01:33:39.997Z,17.63
2018-10-09T01:36:08.374Z,19.27
2018-10-09T01:38:36.859Z,18.17
2018-10-09T01:41:05.126Z,17.37
2018-10-09T01:43:33.478Z,16.90
2018-10-09T01:46:01.750Z,17.80
2018-10-09T01:48:30.030Z,17.30
2018-10-09T01:50:58.334Z,16.57
2018-10-09T01:53:27.681Z,17.47
2018-10-09T01:55:55.945Z,18.17
2018-10-09T01:58:24.222Z,17.77
2018-10-09T02:00:52.486Z,19.90
2018-10-09T02:03:20.855Z,20.00
2018-10-09T02:05:49.131Z,18.47
2018-10-09T02:08:17.405Z,20.17
2018-10-09T02:10:45.701Z,21.35
2018-10-09T02:13:13.986Z,18.33
2018-10-09T02:15:43.291Z,19.13
2018-10-09T02:18:11.589Z,18.40
2018-10-09T02:20:39.877Z,19.20
2018-10-09T02:23:08.150Z,19.20
2018-10-09T02:25:36.466Z,18.17
2018-10-09T02:28:04.781Z,20.70
2018-10-09T02:30:33.078Z,19.57
2018-10-09T02:33:01.741Z,20.07
2018-10-09T02:35:30.066Z,20.30
2018-10-09T02:37:58.530Z,19.37
2018-10-09T02:40:26.873Z,19.70
2018-10-09T02:42:55.162Z,18.67
2018-10-09T02:45:23.546Z,20.50
2018-10-09T02:47:51.846Z,20.00
2018-10-09T02:50:20.134Z,19.70
2018-10-09T02:52:48.439Z,19.00
2018-10-09T02:55:16.746Z,18.33
2018-10-09T02:57:45.038Z,20.60
2018-10-09T03:00:13.371Z,20.97
2018-10-09T03:02:41.682Z,21.03
2018-10-09T03:05:09.986Z,21.23
2018-10-09T03:07:38.298Z,20.80
2018-10-09T03:10:06.629Z,20.67
2018-10-09T03:12:34.918Z,20.73
2018-10-09T03:15:03.257Z,21.53
2018-10-09T03:17:31.521Z,21.10
2018-10-09T03:19:59.809Z,19.80
2018-10-09T03:22:28.134Z,22.00
2018-10-09T03:24:56.429Z,19.57
2018-10-09T03:27:25.048Z,20.00
2018-10-09T03:29:53.354Z,20.50
2018-10-09T03:32:21.642Z,21.30
2018-10-09T03:34:49.928Z,20.83
2018-10-09T03:37:18.224Z,21.70
2018-10-09T03:39:46.516Z,21.43
2018-10-09T03:42:14.831Z,21.63
2018-10-09T03:44:43.136Z,22.30
2018-10-09T03:47:11.438Z,20.17
2018-10-09T03:49:39.939Z,21.00
2018-10-09T03:52:08.230Z,20.47
2018-10-09T03:54:36.534Z,22.27
2018-10-09T03:57:05.265Z,18.90
2018-10-09T03:59:34.590Z,19.90
2018-10-09T04:02:03.146Z,21.07
2018-10-09T04:04:31.512Z,22.20
2018-10-09T04:06:59.829Z,19.50
2018-10-09T04:09:28.204Z,20.33
2018-10-09T04:11:56.502Z,22.47
2018-10-09T04:14:24.809Z,21.27
2018-10-09T04:16:53.086Z,23.20
2018-10-09T04:19:21.437Z,21.40
2018-10-09T04:21:49.730Z,22.13
2018-10-09T04:24:18.038Z,22.10
2018-10-09T04:26:46.367Z,21.70
2018-10-09T04:29:19.676Z,22.30
2018-10-09T04:31:47.982Z,21.63
2018-10-09T04:34:16.263Z,21.40
2018-10-09T04:36:44.560Z,21.77
2018-10-09T04:39:16.093Z,20.97
2018-10-09T04:41:44.387Z,22.00
2018-10-09T04:44:12.681Z,21.33
2018-10-09T04:46:40.991Z,22.37
2018-10-09T04:49:09.314Z,20.77
2018-10-09T04:51:37.594Z,24.90
2018-10-09T04:54:05.946Z,23.10
2018-10-09T04:56:34.223Z,23.57
2018-10-09T04:59:02.548Z,22.40
2018-10-09T05:01:30.849Z,22.80
2018-10-09T05:03:59.187Z,23.60
2018-10-09T05:06:27.489Z,22.30
2018-10-09T05:08:55.777Z,23.30
2018-10-09T05:11:24.102Z,21.50
2018-10-09T05:13:52.412Z,23.70
2018-10-09T05:16:20.693Z,23.80
2018-10-09T05:18:48.989Z,25.43
2018-10-09T05:21:17.274Z,24.50
2018-10-09T05:23:45.607Z,23.50
2018-10-09T05:26:13.970Z,22.90
2018-10-09T05:28:42.286Z,23.80
2018-10-09T05:31:11.735Z,22.27
2018-10-09T05:35:09.106Z,23.23
2018-10-09T05:37:37.477Z,23.30
2018-10-09T05:40:05.870Z,23.40
2018-10-09T05:42:34.186Z,24.10
2018-10-09T05:45:02.482Z,24.23
2018-10-09T05:47:30.813Z,24.40
2018-10-09T05:49:59.138Z,24.13
2018-10-09T05:52:27.494Z,24.87
2018-10-09T05:54:55.746Z,25.97
2018-10-09T05:57:24.057Z,26.10
2018-10-09T05:59:53.002Z,25.67
2018-10-09T06:02:21.304Z,26.50
2018-10-09T06:04:49.638Z,25.10
2018-10-09T06:07:17.956Z,24.30
2018-10-09T06:09:46.250Z,24.87
2018-10-09T06:12:15.687Z,25.27
2018-10-09T06:14:43.998Z,23.93
2018-10-09T06:17:12.310Z,23.90
2018-10-09T06:19:40.657Z,24.63
2018-10-09T06:22:09.037Z,26.47
2018-10-09T06:24:37.398Z,23.10
2018-10-09T06:27:05.747Z,25.90
2018-10-09T06:29:35.499Z,24.40
2018-10-09T06:32:03.869Z,25.03
2018-10-09T06:34:32.176Z,23.47
2018-10-09T06:37:00.509Z,24.40
2018-10-09T06:39:29.841Z,24.73
2018-10-09T06:41:58.170Z,23.93
2018-10-09T06:44:26.495Z,25.70
2018-10-09T06:46:54.793Z,24.43
2018-10-09T06:49:23.151Z,26.43
2018-10-09T06:51:51.458Z,24.43
2018-10-09T06:54:19.788Z,23.87
2018-10-09T06:56:48.034Z,24.80
2018-10-09T06:59:16.321Z,23.80
2018-10-09T07:01:45.646Z,24.00
2018-10-09T07:04:13.934Z,24.30
2018-10-09T07:06:43.249Z,23.57
2018-10-09T07:09:12.225Z,22.90
2018-10-09T07:11:40.579Z,24.90
2018-10-09T07:14:08.863Z,23.13
2018-10-09T07:16:37.173Z,23.27
2018-10-09T07:19:06.580Z,23.70
2018-10-09T07:21:34.893Z,24.03
2018-10-09T07:24:03.257Z,22.80
2018-10-09T07:26:32.678Z,23.43
2018-10-09T07:29:00.971Z,25.53
2018-10-09T07:31:29.266Z,24.43
2018-10-09T07:33:57.573Z,24.83
2018-10-09T07:36:25.886Z,24.17
2018-10-09T07:38:54.179Z,24.50
2018-10-09T07:41:23.362Z,23.60
2018-10-09T07:43:51.725Z,23.73
2018-10-09T07:46:19.983Z,22.23
2018-10-09T07:48:48.294Z,22.87
2018-10-09T07:51:16.635Z,22.23
2018-10-09T07:53:44.939Z,22.17
2018-10-09T07:56:13.638Z,21.67
2018-10-09T07:58:41.992Z,21.70
2018-10-09T08:01:10.263Z,19.73
2018-10-09T08:04:42.581Z,19.47
2018-10-09T08:07:11.886Z,21.20
2018-10-09T08:09:40.191Z,19.93
2018-10-09T08:12:08.550Z,20.30
2018-10-09T08:14:36.878Z,20.10
2018-10-09T08:17:05.191Z,20.20
2018-10-09T08:19:33.482Z,20.77
2018-10-09T08:22:01.802Z,20.20
2018-10-09T08:24:30.120Z,19.40
2018-10-09T08:26:58.442Z,21.43
2018-10-09T08:29:26.767Z,21.50
2018-10-09T08:31:55.266Z,21.30
2018-10-09T08:34:23.725Z,21.40
2018-10-09T08:36:52.905Z,18.67
2018-10-09T08:39:22.315Z,21.03
2018-10-09T08:41:50.618Z,19.20
2018-10-09T08:44:18.918Z,19.00
2018-10-09T08:46:47.306Z,18.73
2018-10-09T08:49:16.178Z,18.67
2018-10-09T08:51:44.527Z,20.03
2018-10-09T08:54:12.825Z,19.20
2018-10-09T08:56:41.135Z,18.97
2018-10-09T08:59:09.482Z,20.67
2018-10-09T09:01:37.807Z,19.47
2018-10-09T09:04:06.510Z,17.73
2018-10-09T09:06:34.807Z,19.80
2018-10-09T09:09:03.426Z,19.37
2018-10-09T09:11:31.731Z,17.53
2018-10-09T09:14:00.079Z,16.70
2018-10-09T09:16:28.381Z,17.67
2018-10-09T09:18:56.670Z,17.63
2018-10-09T09:21:26.006Z,17.63
2018-10-09T09:23:54.466Z,16.67
2018-10-09T09:26:22.801Z,17.53
2018-10-09T09:28:51.078Z,17.30
2018-10-09T09:31:19.701Z,17.27
2018-10-09T09:33:47.998Z,17.13
2018-10-09T09:36:16.333Z,17.13
2018-10-09T09:38:44.650Z,18.00
2018-10-09T09:41:13.081Z,16.50
2018-10-09T09:43:41.366Z,16.77
2018-10-09T09:46:09.724Z,16.83
2018-10-09T09:48:39.090Z,17.00
2018-10-09T09:51:07.381Z,16.70
2018-10-09T09:53:36.794Z,16.67
2018-10-09T09:56:05.087Z,16.37
2018-10-09T09:58:34.589Z,18.83
2018-10-09T10:01:10.030Z,15.33
2018-10-09T10:03:40.765Z,16.60
2018-10-09T10:06:11.195Z,16.50
2018-10-09T10:08:40.314Z,16.83
2018-10-09T10:11:08.695Z,16.23
2018-10-09T10:13:37.041Z,18.40
2018-10-09T10:16:05.343Z,17.33
2018-10-09T10:18:33.700Z,17.67
2018-10-09T10:21:03.278Z,16.43
2018-10-09T10:23:31.590Z,16.83
2018-10-09T10:25:59.966Z,16.67
2018-10-09T10:28:29.447Z,15.80
2018-10-09T10:30:57.786Z,16.43
2018-10-09T10:33:27.138Z,17.30
2018-10-09T10:35:55.510Z,17.77
2018-10-09T10:38:24.102Z,15.67
2018-10-09T10:40:52.479Z,16.20
2018-10-09T10:43:20.858Z,14.23
2018-10-09T10:45:49.214Z,17.27
2018-10-09T10:48:17.530Z,15.10
2018-10-09T10:50:47.058Z,14.03
2018-10-09T10:53:15.426Z,14.30
2018-10-09T10:55:43.784Z,12.87
2018-10-09T10:58:13.719Z,15.93
2018-10-09T11:00:42.082Z,14.73
2018-10-09T11:03:11.454Z,14.60
2018-10-09T11:05:40.832Z,15.70
2018-10-09T11:08:09.163Z,16.10
2018-10-09T11:10:37.462Z,13.87
2018-10-09T11:13:05.779Z,14.50
2018-10-09T11:15:36.122Z,15.20
2018-10-09T11:18:04.433Z,14.57
2018-10-09T11:20:32.710Z,14.43
2018-10-09T11:23:01.222Z,14.30
2018-10-09T11:25:29.514Z,14.53
2018-10-09T11:27:57.826Z,13.03
2018-10-09T11:30:26.158Z,14.33
2018-10-09T11:32:54.450Z,14.40
2018-10-09T11:35:26.218Z,11.90
2018-10-09T11:37:58.000Z,13.20
2018-10-09T11:40:26.512Z,13.80
2018-10-09T11:42:56.932Z,12.50
2018-10-09T11:45:25.190Z,12.87
2018-10-09T11:47:53.582Z,13.10
2018-10-09T11:50:21.890Z,12.97
2018-10-09T11:52:50.406Z,12.17
2018-10-09T11:55:18.705Z,12.70
2018-10-09T11:57:47.012Z,14.93
2018-10-09T12:00:15.370Z,15.47
2018-10-09T12:02:43.721Z,13.90
2018-10-09T12:05:12.061Z,14.03
2018-10-09T12:07:40.614Z,14.30
2018-10-09T12:10:08.906Z,12.97
2018-10-09T12:12:37.214Z,13.47
2018-10-09T12:15:06.035Z,12.70
2018-10-09T12:17:34.346Z,13.20
2018-10-09T12:20:02.657Z,14.40
2018-10-09T12:22:31.062Z,12.20
2018-10-09T12:24:59.353Z,13.00
2018-10-09T12:27:28.510Z,14.77
2018-10-09T12:29:56.938Z,14.60
2018-10-09T12:32:25.238Z,15.10
2018-10-09T12:34:54.542Z,14.20
2018-10-09T12:37:22.913Z,12.80
2018-10-09T12:39:51.207Z,14.87
2018-10-09T12:42:19.571Z,12.60
2018-10-09T12:44:47.914Z,16.20
2018-10-09T12:47:16.226Z,14.10
2018-10-09T12:49:44.607Z,13.60
2018-10-09T12:52:12.925Z,14.40
2018-10-09T12:54:41.257Z,14.70
2018-10-09T12:57:09.723Z,15.07
2018-10-09T12:59:38.035Z,15.17
2018-10-09T13:02:07.403Z,16.10
2018-10-09T13:04:35.698Z,16.63
2018-10-09T13:07:04.034Z,15.60
2018-10-09T13:09:32.335Z,15.27
2018-10-09T13:12:00.630Z,15.40
2018-10-09T13:14:28.955Z,16.03
2018-10-09T13:16:57.246Z,15.03
2018-10-09T13:19:25.590Z,15.87
2018-10-09T13:21:54.164Z,15.97
2018-10-09T13:24:22.191Z,16.80
2018-10-09T13:26:50.496Z,17.47
2018-10-09T13:29:19.006Z,17.57
2018-10-09T13:31:49.090Z,15.67
2018-10-09T13:34:17.797Z,17.77
2018-10-09T13:36:46.187Z,17.93
2018-10-09T13:39:14.469Z,15.87
2018-10-09T13:41:42.753Z,18.30
2018-10-09T13:44:11.223Z,17.20
2018-10-09T13:47:42.196Z,20.67
2018-10-09T13:50:11.590Z,20.20
2018-10-09T13:52:39.990Z,19.23
2018-10-09T13:55:08.281Z,17.20
2018-10-09T13:57:36.886Z,17.63
2018-10-09T14:00:05.215Z,19.10
2018-10-09T14:02:33.550Z,17.73
2018-10-09T14:05:01.853Z,18.57
2018-10-09T14:07:30.146Z,18.80
2018-10-09T14:09:58.498Z,17.97
2018-10-09T14:12:26.772Z,17.87
2018-10-09T14:14:55.116Z,17.00
2018-10-09T14:17:23.591Z,18.50
2018-10-09T14:19:51.910Z,20.77
2018-10-09T14:22:20.275Z,18.87
2018-10-09T14:24:48.531Z,19.13
2018-10-09T14:27:16.844Z,19.47
2018-10-09T14:29:46.190Z,18.33
2018-10-09T14:32:14.515Z,18.07
2018-10-09T14:34:42.856Z,20.80
2018-10-09T14:37:12.255Z,18.97
2018-10-09T14:39:41.695Z,17.90
2018-10-09T14:42:10.151Z,20.13
2018-10-09T14:44:38.522Z,18.43
2018-10-09T14:47:06.878Z,19.30
2018-10-09T14:49:35.197Z,19.37
2018-10-09T14:52:03.515Z,19.97
2018-10-09T14:54:33.031Z,19.90
2018-10-09T14:57:01.351Z,19.60
2018-10-09T14:59:29.642Z,18.90
2018-10-09T15:01:58.012Z,19.70
2018-10-09T15:04:26.327Z,20.27
2018-10-09T15:06:54.701Z,19.83
2018-10-09T15:09:23.201Z,18.80
2018-10-09T15:11:51.561Z,18.37
2018-10-09T15:14:19.854Z,19.37
2018-10-09T15:16:48.353Z,19.23
2018-10-09T15:19:16.618Z,18.70
2018-10-09T15:21:44.925Z,19.83
2018-10-09T15:24:13.254Z,19.00
2018-10-09T15:26:41.546Z,21.50
2018-10-09T15:29:11.939Z,17.77
2018-10-09T15:31:40.178Z,19.53
2018-10-09T15:34:08.494Z,20.60
2018-10-09T15:36:36.794Z,18.87
2018-10-09T15:39:08.532Z,20.13
2018-10-09T15:41:36.897Z,19.10
2018-10-09T15:44:05.448Z,20.10
2018-10-09T15:46:34.988Z,19.50
2018-10-09T15:49:05.298Z,20.80
2018-10-09T15:51:33.646Z,20.80
2018-10-09T15:54:02.166Z,19.83
2018-10-09T15:56:30.477Z,20.60
2018-10-09T15:58:58.847Z,19.93
2018-10-09T16:01:27.164Z,19.80
2018-10-09T16:03:55.507Z,21.57
2018-10-09T16:06:23.768Z,20.97
2018-10-09T16:08:53.154Z,22.80
2018-10-09T16:11:21.454Z,20.20
2018-10-09T16:13:49.746Z,21.30
2018-10-09T16:16:18.422Z,21.30
2018-10-09T16:18:46.714Z,21.33
2018-10-09T16:21:15.032Z,22.47
2018-10-09T16:23:43.358Z,21.43
2018-10-09T16:26:11.654Z,22.57
2018-10-09T16:28:39.938Z,23.07
2018-10-09T16:31:08.226Z,20.40
2018-10-09T16:33:36.660Z,22.30
2018-10-09T16:36:04.949Z,22.23
2018-10-09T16:38:33.278Z,22.40
2018-10-09T16:41:01.628Z,21.70
2018-10-09T16:43:31.954Z,22.00
2018-10-09T16:46:01.346Z,22.40
2018-10-09T16:48:29.649Z,23.57
2018-10-09T16:50:57.965Z,22.63
2018-10-09T16:53:27.341Z,24.63
2018-10-09T16:55:55.766Z,26.30
2018-10-09T16:58:24.061Z,22.57
2018-10-09T17:00:52.390Z,25.93
2018-10-09T17:03:20.691Z,27.50
2018-10-09T17:05:48.986Z,34.00
2018-10-09T17:08:17.265Z,28.70
2018-10-09T17:10:45.797Z,27.77
2018-10-09T17:13:14.126Z,27.57
2018-10-09T17:15:42.451Z,28.97
2018-10-09T17:18:10.717Z,27.87
2018-10-09T17:20:39.022Z,25.47
2018-10-09T17:23:07.720Z,25.43
2018-10-09T17:25:37.052Z,23.70
2018-10-09T17:28:05.426Z,22.80
2018-10-09T17:30:33.715Z,23.40
2018-10-09T17:33:02.031Z,21.40
2018-10-09T17:35:30.334Z,22.90
2018-10-09T17:37:58.635Z,22.93
2018-10-09T17:40:26.932Z,23.90
2018-10-09T17:42:55.251Z,22.83
2018-10-09T17:45:23.550Z,22.80
2018-10-09T17:47:51.826Z,23.90
2018-10-09T17:50:20.150Z,25.17
2018-10-09T17:52:48.458Z,24.60
2018-10-09T17:55:16.763Z,24.57
2018-10-09T17:57:45.141Z,24.47
2018-10-09T18:00:13.492Z,24.53
2018-10-09T18:02:41.795Z,26.57
2018-10-09T18:05:11.340Z,24.03
2018-10-09T18:07:39.655Z,24.97
2018-10-09T18:10:07.958Z,25.40
2018-10-09T18:12:36.725Z,23.13
2018-10-09T18:15:05.315Z,21.53
2018-10-09T18:17:33.605Z,22.10
2018-10-09T18:20:01.913Z,24.33
2018-10-09T18:22:30.218Z,22.40
2018-10-09T18:24:58.518Z,23.67
2018-10-09T18:27:26.830Z,22.10
2018-10-09T18:29:55.174Z,21.63
2018-10-09T18:32:23.490Z,21.20
2018-10-09T18:34:51.826Z,21.00
2018-10-09T18:37:20.142Z,22.80
2018-10-09T18:39:48.438Z,20.70
2018-10-09T18:42:16.985Z,20.87
2018-10-09T18:44:45.290Z,20.67
2018-10-09T18:47:50.490Z,20.97
2018-10-09T18:50:18.798Z,20.50
2018-10-09T18:52:47.081Z,21.17
2018-10-09T18:55:16.866Z,20.93
2018-10-09T18:57:45.550Z,19.50
2018-10-09T19:00:14.406Z,20.60
2018-10-09T19:02:42.701Z,20.67
2018-10-09T19:05:11.498Z,21.60
2018-10-09T19:07:40.249Z,20.60
2018-10-09T19:10:09.180Z,21.27
2018-10-09T19:12:37.486Z,22.10
2018-10-09T19:15:06.042Z,18.63
2018-10-09T19:17:34.338Z,21.40
2018-10-09T19:20:02.665Z,22.07
2018-10-09T19:22:32.970Z,22.33
2018-10-09T19:25:01.281Z,20.70
2018-10-09T19:27:30.589Z,21.10
2018-10-09T19:29:58.914Z,19.87
2018-10-09T19:32:28.399Z,20.37
2018-10-09T19:34:57.662Z,20.17
2018-10-09T19:37:25.991Z,20.70
2018-10-09T19:39:54.474Z,21.23
2018-10-09T19:42:22.810Z,23.90
2018-10-09T19:44:52.097Z,23.83
2018-10-09T19:47:20.410Z,26.40
2018-10-09T19:49:48.878Z,25.00
2018-10-09T19:52:17.173Z,25.40
2018-10-09T19:54:45.458Z,23.30
2018-10-09T19:57:13.790Z,22.43
2018-10-09T19:59:42.103Z,22.03
2018-10-09T20:02:10.437Z,25.73
2018-10-09T20:04:39.106Z,25.23
2018-10-09T20:07:08.446Z,23.70
2018-10-09T20:09:36.758Z,23.30
2018-10-09T20:12:05.262Z,22.37
2018-10-09T20:14:33.691Z,22.13
2018-10-09T20:17:02.141Z,21.90
2018-10-09T20:19:30.705Z,21.70
2018-10-09T20:21:59.082Z,23.10
2018-10-09T20:24:27.474Z,21.30
2018-10-09T20:26:56.150Z,21.10
2018-10-09T20:29:24.563Z,21.90
2018-10-09T20:31:52.863Z,23.50
2018-10-09T20:34:21.179Z,21.10
2018-10-09T20:36:49.495Z,20.63
2018-10-09T20:39:17.880Z,20.47
2018-10-09T20:41:46.186Z,20.10
2018-10-09T20:44:14.486Z,20.93
2018-10-09T20:46:42.923Z,20.03
2018-10-09T20:49:12.386Z,19.90
2018-10-09T20:51:40.882Z,21.10
2018-10-09T20:54:09.353Z,22.03
2018-10-09T20:56:37.654Z,20.00
2018-10-09T20:59:06.702Z,19.73
2018-10-09T21:01:35.014Z,19.77
2018-10-09T21:04:03.354Z,21.27
2018-10-09T21:06:31.695Z,19.30
2018-10-09T21:08:59.994Z,21.53
2018-10-09T21:11:28.317Z,20.80
2018-10-09T21:13:56.630Z,19.80
2018-10-09T21:16:24.938Z,22.73
2018-10-09T21:18:53.261Z,19.63
2018-10-09T21:21:21.670Z,21.30
2018-10-09T21:23:49.959Z,19.60
2018-10-09T21:26:19.249Z,21.60
2018-10-09T21:28:47.651Z,21.97
2018-10-09T21:31:15.974Z,19.80
2018-10-09T21:33:44.266Z,23.00
2018-10-09T21:36:12.554Z,22.67
2018-10-09T21:38:40.962Z,21.70
2018-10-09T21:41:09.265Z,20.73
2018-10-09T21:43:37.574Z,20.07
2018-10-09T21:46:05.891Z,21.90
2018-10-09T21:48:34.210Z,22.13
2018-10-09T21:51:02.522Z,22.83
2018-10-09T21:53:30.819Z,23.40
2018-10-09T21:55:59.141Z,20.87
2018-10-09T21:58:28.439Z,21.23
2018-10-09T22:01:02.203Z,22.93
2018-10-09T22:03:30.499Z,20.37
2018-10-09T22:05:59.815Z,20.63
2018-10-09T22:08:28.204Z,21.70
2018-10-09T22:10:56.514Z,22.53
2018-10-09T22:13:25.246Z,20.30
2018-10-09T22:15:53.558Z,20.20
2018-10-09T22:18:21.890Z,24.27
2018-10-09T22:20:50.210Z,22.00
2018-10-09T22:23:18.515Z,20.57
2018-10-09T22:25:46.986Z,20.30
2018-10-09T22:28:15.303Z,20.47
2018-10-09T22:30:43.680Z,22.00
2018-10-09T22:33:11.986Z,23.23
2018-10-09T22:35:40.282Z,21.70
2018-10-09T22:38:08.605Z,22.50
2018-10-09T22:40:36.921Z,22.37
2018-10-09T22:43:05.357Z,21.90
2018-10-09T22:45:33.706Z,20.60
2018-10-09T22:48:02.035Z,21.03
2018-10-09T22:50:30.346Z,23.60
2018-10-09T22:52:58.655Z,22.83
2018-10-09T22:55:27.349Z,21.37
2018-10-09T22:57:56.678Z,23.90
2018-10-09T23:00:24.998Z,22.40
2018-10-09T23:02:53.654Z,23.47
2018-10-09T23:05:22.011Z,22.37
2018-10-09T23:07:50.326Z,23.93
2018-10-09T23:13:09.358Z,22.23
2018-10-09T23:15:38.873Z,22.93
2018-10-09T23:20:57.778Z,22.83
2018-10-09T23:26:16.446Z,23.50
2018-10-09T23:28:45.810Z,24.33
2018-10-09T23:31:14.126Z,23.83
2018-10-09T23:33:42.610Z,23.73
2018-10-09T23:36:10.906Z,25.00
2018-10-09T23:38:39.214Z,24.80
2018-10-09T23:41:07.934Z,24.37
2018-10-09T23:43:37.318Z,25.80
2018-10-09T23:46:05.601Z,23.93
2018-10-09T23:49:38.217Z,24.47
2018-10-09T23:52:06.594Z,24.17
2018-10-09T23:54:34.980Z,23.47
2018-10-09T23:57:03.387Z,23.50
2018-10-09T23:59:31.747Z,24.40
